Luxora, Arkansas
Current Conditions -  °F | °C
As of 5:53 AM on Wednesday 28 Jan 2015 (Local Time) from KHKA Reporting Station
Clear Clear  
Wind Chill: 27°   Ceiling: Unl
Heat Index: 32°   Visibility: 10mi
Dew Point: 28°   Wind: 5mph
Humidity: 85%   Direction: 120°ESE
Pressure: 30.29"   Gusts: NA
Location:  35.76°N, 89.93°W
Report Text: KHKA 281153Z AUTO 12004KT 10SM CLR 00/M02 A3029 RMK AO2 SLP258 T00001022 10011 21017 53009
Loading
Personal Weather Stations






























Interactive Weather Map New forecast layout! Learn more

10-Day Weather Forecast

Advertisements
Track Severe Weather on mobile